Time;durP1;ratioP1;P1;durP2;ratioP2;P2;SDS_P1;SDS_P2;PMS_P1;PMS_P2;Temp;Humidity;BMP_temperature;BMP_pressure;BME280_temperature;BME280_humidity;BME280_pressure;Samples;Min_cycle;Max_cycle;Signal;HPM_P1;HPM_P2
2021/11/15 00:01:14;;;;;;;1.30;1.23;;;5.90;99.90;;;;;;4982740;28;20055;-92
2021/11/15 00:03:41;;;;;;;0.20;0.20;;;5.80;99.90;;;;;;4982567;28;20015;-92
2021/11/15 00:06:07;;;;;;;0.55;0.55;;;5.80;99.90;;;;;;4982949;28;20082;-91
2021/11/15 00:08:33;;;;;;;0.75;0.75;;;5.90;99.90;;;;;;4983449;28;20019;-92
2021/11/15 00:10:59;;;;;;;3.20;1.65;;;5.80;99.90;;;;;;4983399;28;20061;-91
2021/11/15 00:13:25;;;;;;;5.82;5.05;;;5.70;99.90;;;;;;4982825;28;20015;-91
2021/11/15 00:15:54;;;;;;;1.83;1.40;;;5.70;99.90;;;;;;4983209;28;20046;-91
2021/11/15 00:18:19;;;;;;;0.22;0.22;;;5.80;99.90;;;;;;4983006;28;20027;-91
2021/11/15 00:20:45;;;;;;;1.13;1.08;;;5.80;99.90;;;;;;4983281;28;20030;-92
2021/11/15 00:23:11;;;;;;;0.20;0.20;;;5.90;99.90;;;;;;4983023;28;20014;-92
2021/11/15 00:25:37;;;;;;;20.10;1.10;;;5.80;99.90;;;;;;4983328;28;20038;-92
2021/11/15 00:28:03;;;;;;;0.20;0.20;;;5.80;99.90;;;;;;4983331;28;20014;-91
2021/11/15 00:30:28;;;;;;;0.20;0.20;;;5.80;99.90;;;;;;4982857;28;20023;-92
2021/11/15 00:32:54;;;;;;;0.77;0.77;;;5.80;99.90;;;;;;4982894;28;20129;-91
2021/11/15 00:35:20;;;;;;;1.50;0.88;;;5.70;99.90;;;;;;4982304;28;20034;-92
2021/11/15 00:37:46;;;;;;;1.65;0.95;;;5.70;99.90;;;;;;4982250;28;20042;-91
2021/11/15 00:40:15;;;;;;;3.00;1.65;;;5.70;99.90;;;;;;4982705;28;20195;-92
2021/11/15 00:42:41;;;;;;;0.40;0.40;;;5.60;99.90;;;;;;4982712;28;20046;-91
2021/11/15 00:45:08;;;;;;;1.38;1.20;;;5.60;99.90;;;;;;4981584;28;20018;-91
2021/11/15 00:47:37;;;;;;;0.10;0.10;;;5.60;99.90;;;;;;4982650;28;20019;-92
2021/11/15 00:50:06;;;;;;;4.53;1.17;;;5.70;99.90;;;;;;4982507;28;20050;-91
2021/11/15 00:52:31;;;;;;;1.42;1.30;;;5.70;99.90;;;;;;4982162;28;20046;-92
2021/11/15 00:54:57;;;;;;;0.30;0.30;;;5.70;99.90;;;;;;4982149;28;20070;-92
2021/11/15 00:57:25;;;;;;;0.10;0.10;;;5.70;99.90;;;;;;4982473;28;20042;-92
2021/11/15 00:59:51;;;;;;;0.15;0.15;;;5.70;99.90;;;;;;4982281;28;20015;-91
2021/11/15 01:02:17;;;;;;;2.72;1.75;;;5.60;99.90;;;;;;4981973;28;20031;-91
2021/11/15 01:04:46;;;;;;;0.20;0.20;;;5.80;99.90;;;;;;4982395;28;20022;-92
2021/11/15 01:07:11;;;;;;;0.63;0.63;;;5.80;99.90;;;;;;4982149;28;20019;-92
2021/11/15 01:09:37;;;;;;;0.80;0.80;;;5.70;99.90;;;;;;4982140;28;20037;-91
2021/11/15 01:12:03;;;;;;;2.30;1.17;;;5.60;99.90;;;;;;4982131;28;20038;-92
2021/11/15 01:14:29;;;;;;;1.70;1.35;;;5.60;99.90;;;;;;4981904;28;20023;-92
2021/11/15 01:16:55;;;;;;;0.10;0.10;;;5.60;99.90;;;;;;4981843;28;20035;-91
2021/11/15 01:19:20;;;;;;;0.70;0.70;;;5.60;99.90;;;;;;4981692;28;20026;-91
2021/11/15 01:21:46;;;;;;;0.20;0.20;;;5.70;99.90;;;;;;4981942;28;20046;-92
2021/11/15 01:24:12;;;;;;;1.05;0.95;;;5.80;99.90;;;;;;4981543;28;20276;-92
2021/11/15 01:26:39;;;;;;;0.40;0.40;;;5.80;99.90;;;;;;4981693;28;20037;-92
2021/11/15 01:29:06;;;;;;;1.63;1.52;;;5.70;99.90;;;;;;4981761;28;20082;-92
2021/11/15 01:31:32;;;;;;;0.20;0.20;;;5.60;99.90;;;;;;4981803;28;20099;-92
2021/11/15 01:33:58;;;;;;;2.90;2.67;;;5.50;99.90;;;;;;4981736;28;20019;-92
2021/11/15 01:36:24;;;;;;;1.17;1.17;;;5.50;99.90;;;;;;4981432;28;20033;-92
2021/11/15 01:38:49;;;;;;;4.57;2.08;;;5.50;99.90;;;;;;4981519;28;20034;-92
2021/11/15 01:41:15;;;;;;;0.70;0.52;;;5.50;99.90;;;;;;4981582;28;20033;-92
2021/11/15 01:43:41;;;;;;;0.20;0.20;;;5.50;99.90;;;;;;4981906;28;20014;-92
2021/11/15 01:46:07;;;;;;;0.17;0.17;;;5.40;99.90;;;;;;4981564;28;20093;-92
2021/11/15 01:48:34;;;;;;;4.32;3.67;;;5.50;99.90;;;;;;4981582;28;20019;-92
2021/11/15 01:50:59;;;;;;;4.15;1.45;;;5.40;99.90;;;;;;4981500;28;20015;-92
2021/11/15 01:53:25;;;;;;;5.68;3.40;;;5.50;99.90;;;;;;4981346;28;20106;-91
2021/11/15 01:55:51;;;;;;;0.47;0.47;;;5.40;99.90;;;;;;4981102;28;20023;-92
2021/11/15 01:58:17;;;;;;;1.48;1.05;;;5.20;99.90;;;;;;4981382;28;20023;-92
2021/11/15 02:00:54;;;;;;;1.25;1.15;;;5.10;99.90;;;;;;4981454;28;20033;-92
2021/11/15 02:03:21;;;;;;;1.15;1.15;;;5.20;99.90;;;;;;4981529;28;20039;-92
2021/11/15 02:05:47;;;;;;;0.57;0.57;;;5.20;99.90;;;;;;4981095;28;20027;-92
2021/11/15 02:08:14;;;;;;;0.20;0.20;;;5.20;99.90;;;;;;4981194;28;20037;-92
2021/11/15 02:10:40;;;;;;;1.08;1.05;;;5.30;99.90;;;;;;4981339;28;20031;-92
2021/11/15 02:13:06;;;;;;;1.45;1.38;;;5.30;99.90;;;;;;4981526;28;20019;-92
2021/11/15 02:15:32;;;;;;;0.20;0.20;;;5.10;99.90;;;;;;4981105;28;20066;-92
2021/11/15 02:17:59;;;;;;;0.10;0.10;;;5.30;99.90;;;;;;4981425;28;20011;-92
2021/11/15 02:20:27;;;;;;;4.63;1.30;;;5.30;99.90;;;;;;4981291;28;20031;-93
2021/11/15 02:22:54;;;;;;;0.10;0.10;;;5.20;99.90;;;;;;4981263;28;20043;-93
2021/11/15 02:25:24;;;;;;;0.22;0.22;;;5.30;99.90;;;;;;4980707;28;20011;-93
2021/11/15 02:27:51;;;;;;;0.32;0.32;;;5.40;99.90;;;;;;4980941;28;20007;-93
2021/11/15 02:30:22;;;;;;;1.38;1.35;;;5.40;99.90;;;;;;4981072;28;20050;-93
2021/11/15 02:32:48;;;;;;;1.55;1.45;;;5.50;99.90;;;;;;4980889;28;20102;-92
2021/11/15 02:35:15;;;;;;;0.68;0.68;;;5.60;99.90;;;;;;4981055;28;20045;-93
2021/11/15 02:37:42;;;;;;;0.40;0.40;;;5.70;99.90;;;;;;4982195;28;20023;-93
2021/11/15 02:40:10;;;;;;;0.10;0.10;;;5.60;99.90;;;;;;4981573;28;20019;-92
2021/11/15 02:42:36;;;;;;;0.20;0.20;;;5.70;99.90;;;;;;4981052;28;20026;-92
2021/11/15 02:45:07;;;;;;;0.43;0.43;;;5.60;99.90;;;;;;4981081;28;20305;-93
2021/11/15 02:47:41;;;;;;;0.52;0.52;;;5.60;99.90;;;;;;4981137;28;20037;-93
2021/11/15 02:50:20;;;;;;;5.47;1.52;;;5.70;99.90;;;;;;4980972;28;20034;-92
2021/11/15 02:52:48;;;;;;;0.20;0.20;;;5.60;99.90;;;;;;4980419;28;20061;-92
2021/11/15 02:55:15;;;;;;;2.15;2.05;;;5.60;99.90;;;;;;4980725;28;20038;-93
2021/11/15 02:57:40;;;;;;;0.90;0.90;;;5.70;99.90;;;;;;4980863;28;20033;-92
2021/11/15 03:00:25;;;;;;;0.68;0.68;;;5.80;99.90;;;;;;4980660;28;20047;-92
2021/11/15 03:02:54;;;;;;;0.20;0.20;;;5.70;99.90;;;;;;4980416;28;20030;-93
2021/11/15 03:05:32;;;;;;;0.52;0.52;;;5.70;99.90;;;;;;4982094;28;20015;-93
2021/11/15 03:08:02;;;;;;;0.20;0.20;;;5.60;99.90;;;;;;4981121;28;20019;-92
2021/11/15 03:10:43;;;;;;;0.45;0.45;;;5.60;99.90;;;;;;4985380;28;20015;-93
2021/11/15 03:13:10;;;;;;;1.20;0.85;;;5.50;99.90;;;;;;4984423;28;20027;-93
2021/11/15 03:15:39;;;;;;;0.13;0.13;;;5.40;99.90;;;;;;4984129;28;20038;-93
2021/11/15 03:18:15;;;;;;;0.80;0.80;;;5.40;99.90;;;;;;4984152;28;20030;-93
2021/11/15 03:20:45;;;;;;;0.32;0.32;;;5.50;99.90;;;;;;4984144;28;20062;-92
2021/11/15 03:23:16;;;;;;;2.45;0.75;;;5.40;99.90;;;;;;4984301;28;20022;-93
2021/11/15 03:25:42;;;;;;;1.92;1.50;;;5.30;99.90;;;;;;4984048;28;20070;-92
2021/11/15 03:28:13;;;;;;;0.75;0.75;;;5.40;99.90;;;;;;4983664;28;20018;-92
2021/11/15 03:30:40;;;;;;;0.20;0.20;;;5.40;99.90;;;;;;4983994;28;20034;-92
2021/11/15 03:33:07;;;;;;;0.40;0.40;;;5.20;99.90;;;;;;4983964;28;20023;-92
2021/11/15 03:35:33;;;;;;;0.73;0.73;;;5.40;99.90;;;;;;4983853;28;20019;-93
2021/11/15 03:37:59;;;;;;;0.45;0.45;;;5.20;99.90;;;;;;4983801;28;20022;-93
2021/11/15 03:40:26;;;;;;;0.10;0.10;;;5.20;99.90;;;;;;4983781;28;20015;-92
2021/11/15 03:42:59;;;;;;;1.75;1.65;;;5.30;99.90;;;;;;4983576;28;20078;-92
2021/11/15 03:45:30;;;;;;;0.20;0.20;;;5.20;99.90;;;;;;4983791;28;20011;-92
2021/11/15 03:47:56;;;;;;;5.53;2.47;;;5.20;99.90;;;;;;4983613;28;20019;-93
2021/11/15 03:50:25;;;;;;;0.93;0.70;;;5.20;99.90;;;;;;4983664;28;20262;-92
2021/11/15 03:52:53;;;;;;;1.05;1.05;;;5.30;99.90;;;;;;4983650;28;20015;-92
2021/11/15 03:55:22;;;;;;;1.13;0.80;;;5.30;99.90;;;;;;4983292;28;20102;-92
2021/11/15 03:57:48;;;;;;;1.38;1.27;;;5.30;99.90;;;;;;4983051;28;20090;-93
2021/11/15 04:00:18;;;;;;;0.63;0.63;;;5.20;99.90;;;;;;4983530;28;20038;-93
2021/11/15 04:02:50;;;;;;;0.40;0.32;;;5.30;99.90;;;;;;4983212;28;20030;-93
2021/11/15 04:05:26;;;;;;;1.02;1.02;;;5.20;99.90;;;;;;4983186;28;20026;-93
2021/11/15 04:07:51;;;;;;;0.50;0.50;;;5.10;99.90;;;;;;4983467;28;20035;-93
2021/11/15 04:10:27;;;;;;;0.20;0.20;;;5.20;99.90;;;;;;4983204;28;20019;-92
2021/11/15 04:12:55;;;;;;;2.72;1.75;;;5.40;99.90;;;;;;4983092;28;20049;-92
2021/11/15 04:15:21;;;;;;;3.30;2.78;;;5.20;99.90;;;;;;4983011;28;20035;-92
2021/11/15 04:17:48;;;;;;;2.92;0.82;;;5.10;99.90;;;;;;4982819;28;20027;-93
2021/11/15 04:20:16;;;;;;;2.28;2.08;;;5.20;99.90;;;;;;4982764;28;20015;-94
2021/11/15 04:22:42;;;;;;;12.82;5.20;;;5.10;99.90;;;;;;4983118;28;20022;-93
2021/11/15 04:25:09;;;;;;;0.50;0.50;;;5.10;99.90;;;;;;4982688;28;20027;-93
2021/11/15 04:27:36;;;;;;;0.13;0.13;;;5.10;99.90;;;;;;4982849;28;20014;-92
2021/11/15 04:30:05;;;;;;;0.10;0.10;;;5.10;99.90;;;;;;4982708;28;20121;-92
2021/11/15 04:32:30;;;;;;;0.75;0.75;;;5.10;99.90;;;;;;4982848;28;20023;-93
2021/11/15 04:34:57;;;;;;;1.02;0.90;;;5.20;99.90;;;;;;4982695;28;20035;-92
2021/11/15 04:37:22;;;;;;;0.98;0.73;;;5.30;99.90;;;;;;4982785;28;20038;-93
2021/11/15 04:39:48;;;;;;;0.20;0.20;;;5.30;99.90;;;;;;4982849;28;20011;-91
2021/11/15 04:42:14;;;;;;;2.78;2.30;;;5.40;99.90;;;;;;4982803;28;20038;-91
2021/11/15 04:44:42;;;;;;;0.20;0.20;;;5.40;99.90;;;;;;4982761;28;20015;-93
2021/11/15 04:47:08;;;;;;;0.20;0.20;;;5.40;99.90;;;;;;4982876;28;20082;-92
2021/11/15 04:49:33;;;;;;;0.15;0.15;;;5.30;99.90;;;;;;4983159;28;20007;-91
2021/11/15 04:51:59;;;;;;;0.82;0.82;;;5.30;99.90;;;;;;4982881;28;20007;-92
2021/11/15 04:54:27;;;;;;;0.20;0.20;;;5.30;99.90;;;;;;4982625;28;20037;-92
2021/11/15 04:56:53;;;;;;;0.30;0.30;;;5.30;99.90;;;;;;4982594;28;20057;-92
2021/11/15 04:59:19;;;;;;;0.15;0.15;;;5.30;99.90;;;;;;4982500;28;20011;-93
2021/11/15 05:01:45;;;;;;;0.80;0.80;;;5.40;99.90;;;;;;4982450;28;20094;-92
2021/11/15 05:04:11;;;;;;;1.55;1.45;;;5.30;99.90;;;;;;4982026;28;20015;-93
2021/11/15 05:06:37;;;;;;;0.10;0.10;;;5.40;99.90;;;;;;4982167;28;20022;-92
2021/11/15 05:09:02;;;;;;;0.30;0.30;;;5.30;99.90;;;;;;4982162;28;20031;-93
2021/11/15 05:11:28;;;;;;;0.40;0.40;;;5.30;99.90;;;;;;4982060;28;20039;-92
2021/11/15 05:13:55;;;;;;;1.48;1.38;;;5.40;99.90;;;;;;4982045;28;20057;-91
2021/11/15 05:16:20;;;;;;;1.10;0.98;;;5.30;99.90;;;;;;4981930;28;20031;-93
2021/11/15 05:18:46;;;;;;;0.52;0.52;;;5.30;99.90;;;;;;4981867;28;20042;-93
2021/11/15 05:21:12;;;;;;;1.65;1.48;;;5.20;99.90;;;;;;4981994;28;20026;-93
2021/11/15 05:23:40;;;;;;;0.22;0.22;;;5.20;99.90;;;;;;4981980;28;20007;-93
2021/11/15 05:26:06;;;;;;;0.43;0.43;;;5.10;99.90;;;;;;4981893;28;20103;-93
2021/11/15 05:31:07;;;;;;;3.33;1.00;;;5.20;99.90;;;;;;4970471;28;20046;-72
2021/11/15 05:33:32;;;;;;;1.30;1.30;;;5.20;99.90;;;;;;4972129;28;20029;-72
2021/11/15 05:35:58;;;;;;;0.30;0.30;;;5.30;99.90;;;;;;4973181;28;20062;-72
2021/11/15 05:38:24;;;;;;;0.73;0.73;;;5.30;99.90;;;;;;4973346;28;20018;-72
2021/11/15 05:40:50;;;;;;;0.10;0.10;;;5.30;99.90;;;;;;4971936;28;20026;-72
2021/11/15 05:43:15;;;;;;;3.72;0.88;;;5.30;99.90;;;;;;4973016;28;20102;-72
2021/11/15 05:45:41;;;;;;;1.25;1.10;;;5.10;99.90;;;;;;4973058;28;20085;-72
2021/11/15 05:48:07;;;;;;;0.20;0.20;;;5.00;99.90;;;;;;4973228;28;20034;-72
2021/11/15 05:50:33;;;;;;;0.15;0.15;;;5.10;99.90;;;;;;4971835;28;20073;-72
2021/11/15 05:53:00;;;;;;;0.43;0.43;;;5.20;99.90;;;;;;4972921;28;20027;-72
2021/11/15 05:55:27;;;;;;;0.20;0.20;;;5.20;99.90;;;;;;4973003;28;20026;-72
2021/11/15 05:57:53;;;;;;;0.10;0.10;;;5.20;99.90;;;;;;4971743;28;20058;-72
2021/11/15 06:00:23;;;;;;;2.35;2.25;;;5.30;99.90;;;;;;4955550;28;20054;-72
2021/11/15 06:02:49;;;;;;;0.10;0.10;;;5.40;99.90;;;;;;4971585;28;20034;-72
2021/11/15 06:05:14;;;;;;;1.27;1.17;;;5.40;99.90;;;;;;4973148;28;20027;-72
2021/11/15 06:07:41;;;;;;;5.28;0.80;;;5.50;99.90;;;;;;4971704;28;20038;-72
2021/11/15 06:10:08;;;;;;;0.10;0.10;;;5.50;99.90;;;;;;4972917;28;20398;-72
2021/11/15 06:12:35;;;;;;;0.10;0.10;;;5.50;99.90;;;;;;4972912;28;20379;-72
2021/11/15 06:15:01;;;;;;;0.20;0.20;;;5.50;99.90;;;;;;4971411;28;20050;-71
2021/11/15 06:17:27;;;;;;;1.65;1.40;;;5.50;99.90;;;;;;4971436;28;20475;-72
2021/11/15 06:19:53;;;;;;;0.25;0.20;;;5.50;99.90;;;;;;4971499;28;20082;-71
2021/11/15 06:22:18;;;;;;;1.05;1.05;;;5.30;99.90;;;;;;4971650;28;20037;-72
2021/11/15 06:24:47;;;;;;;0.63;0.40;;;5.20;99.90;;;;;;4971549;28;20391;-72
2021/11/15 06:27:17;;;;;;;0.85;0.85;;;5.20;99.90;;;;;;4972746;28;20054;-71
2021/11/15 06:29:45;;;;;;;2.05;1.88;;;5.10;99.90;;;;;;4970999;28;20133;-71
2021/11/15 06:32:13;;;;;;;4.47;1.75;;;5.00;99.90;;;;;;4955290;28;20057;-72
2021/11/15 06:34:39;;;;;;;1.23;1.23;;;5.00;99.90;;;;;;4955249;28;20089;-72
2021/11/15 06:37:06;;;;;;;6.88;1.52;;;5.10;99.90;;;;;;4972576;28;20031;-72
2021/11/15 06:39:32;;;;;;;3.75;2.97;;;5.20;99.90;;;;;;4972560;28;20486;-72
2021/11/15 06:41:58;;;;;;;0.82;0.82;;;5.20;99.90;;;;;;4971755;28;20019;-72
2021/11/15 06:44:26;;;;;;;1.92;1.75;;;5.10;99.90;;;;;;4958786;28;20031;-72
2021/11/15 06:46:52;;;;;;;2.35;1.65;;;5.20;99.90;;;;;;4976094;28;20083;-72
2021/11/15 06:49:19;;;;;;;3.10;0.85;;;5.20;99.90;;;;;;4974931;28;20142;-72
2021/11/15 06:51:46;;;;;;;2.47;2.28;;;5.10;99.90;;;;;;4976275;28;20034;-72
2021/11/15 06:54:13;;;;;;;0.52;0.52;;;5.10;99.90;;;;;;4974735;28;20042;-72
2021/11/15 06:56:39;;;;;;;0.10;0.10;;;5.00;99.90;;;;;;4975943;28;20067;-72
2021/11/15 06:59:06;;;;;;;0.10;0.10;;;5.10;99.90;;;;;;4957861;28;20505;-71
2021/11/15 07:01:36;;;;;;;0.28;0.28;;;5.20;99.90;;;;;;4959900;28;20502;-72
2021/11/15 07:04:04;;;;;;;0.10;0.10;;;5.30;99.90;;;;;;4970812;28;20027;-72
2021/11/15 07:06:30;;;;;;;1.10;1.10;;;5.30;99.90;;;;;;4975713;28;20034;-72
2021/11/15 07:08:56;;;;;;;0.57;0.57;;;5.30;99.90;;;;;;4986869;28;20038;-71
2021/11/15 07:11:22;;;;;;;0.17;0.17;;;5.10;99.90;;;;;;4985439;28;20027;-72
2021/11/15 07:13:48;;;;;;;2.65;1.65;;;5.10;99.90;;;;;;4975567;28;20031;-71
2021/11/15 07:16:14;;;;;;;0.50;0.50;;;5.00;99.90;;;;;;4957932;28;20114;-72
2021/11/15 07:18:40;;;;;;;0.20;0.20;;;5.00;99.90;;;;;;4974318;28;20054;-71
2021/11/15 07:21:06;;;;;;;0.10;0.10;;;5.10;99.90;;;;;;4974260;28;20019;-71
2021/11/15 07:23:32;;;;;;;0.45;0.35;;;5.10;99.90;;;;;;4974569;28;20398;-71
2021/11/15 07:25:58;;;;;;;0.10;0.10;;;5.20;99.90;;;;;;4974265;28;20050;-72
2021/11/15 07:28:24;;;;;;;0.20;0.20;;;5.20;99.90;;;;;;4975456;28;20031;-72
2021/11/15 07:30:54;;;;;;;3.42;0.47;;;5.10;99.90;;;;;;4973860;28;20046;-72
2021/11/15 07:33:25;;;;;;;0.10;0.10;;;5.20;99.90;;;;;;4974289;28;20081;-72
2021/11/15 07:35:51;;;;;;;0.10;0.10;;;5.20;99.90;;;;;;4975245;28;20031;-72
2021/11/15 07:38:17;;;;;;;0.30;0.30;;;5.30;99.90;;;;;;4975382;28;20414;-72
2021/11/15 07:40:43;;;;;;;0.20;0.20;;;5.30;99.90;;;;;;4975291;28;20023;-72
2021/11/15 07:43:09;;;;;;;0.20;0.20;;;5.20;99.90;;;;;;4975091;28;20041;-72
2021/11/15 07:45:35;;;;;;;0.45;0.45;;;5.20;99.90;;;;;;4973523;28;20027;-72
2021/11/15 07:48:01;;;;;;;0.10;0.10;;;5.20;99.90;;;;;;4975062;28;20387;-72
2021/11/15 07:50:27;;;;;;;0.10;0.10;;;5.30;99.90;;;;;;4973811;28;20403;-72
2021/11/15 07:52:52;;;;;;;0.20;0.20;;;5.40;99.90;;;;;;4973936;28;20026;-72
2021/11/15 07:55:19;;;;;;;2.53;2.33;;;5.50;99.90;;;;;;4956878;28;20075;-72
2021/11/15 07:57:46;;;;;;;0.10;0.10;;;5.40;99.90;;;;;;4974895;28;20033;-72
2021/11/15 08:00:17;;;;;;;1.00;1.00;;;5.30;99.90;;;;;;4973615;28;20054;-72
2021/11/15 08:02:43;;;;;;;0.20;0.20;;;5.30;99.90;;;;;;4975001;28;20023;-72
2021/11/15 08:05:11;;;;;;;2.03;1.63;;;5.30;99.90;;;;;;4974716;28;20383;-72
2021/11/15 08:07:37;;;;;;;1.70;1.60;;;5.30;99.90;;;;;;4977463;28;20030;-72
2021/11/15 08:10:06;;;;;;;0.10;0.10;;;5.10;99.90;;;;;;4994144;28;20026;-72
2021/11/15 08:12:39;;;;;;;0.10;0.10;;;5.10;99.90;;;;;;4994315;28;20026;-72
2021/11/15 08:15:08;;;;;;;2.38;1.38;;;5.20;99.90;;;;;;4993822;28;20057;-72
2021/11/15 08:17:38;;;;;;;0.75;0.75;;;5.20;99.90;;;;;;4976398;28;20117;-72
2021/11/15 08:20:18;;;;;;;1.48;1.25;;;5.20;99.90;;;;;;4976342;28;20099;-71
2021/11/15 08:22:47;;;;;;;0.50;0.43;;;5.30;99.90;;;;;;4994116;28;20030;-71
2021/11/15 08:25:37;;;;;;;0.20;0.20;;;5.20;99.90;;;;;;4993784;28;20027;-72
2021/11/15 08:28:03;;;;;;;0.15;0.15;;;5.10;99.90;;;;;;4976366;28;20060;-72
2021/11/15 08:30:30;;;;;;;0.95;0.90;;;5.20;99.90;;;;;;4976279;28;20031;-72
2021/11/15 08:32:56;;;;;;;0.45;0.45;;;5.20;99.90;;;;;;4992468;28;20022;-72
2021/11/15 08:35:24;;;;;;;1.80;1.70;;;5.20;99.90;;;;;;4993442;28;20030;-72
2021/11/15 08:38:07;;;;;;;0.20;0.20;;;5.30;99.90;;;;;;4993623;28;20022;-71
2021/11/15 08:40:33;;;;;;;0.10;0.10;;;5.40;99.90;;;;;;4992079;28;20022;-72
2021/11/15 08:42:59;;;;;;;0.45;0.45;;;5.20;99.90;;;;;;4980114;28;20027;-71
2021/11/15 08:45:26;;;;;;;0.10;0.10;;;5.30;99.90;;;;;;4973468;28;20434;-72
2021/11/15 08:47:51;;;;;;;1.55;0.95;;;5.30;99.90;;;;;;4989033;28;20030;-72
2021/11/15 08:50:17;;;;;;;0.20;0.20;;;5.40;99.90;;;;;;4991523;28;20109;-72
2021/11/15 08:52:43;;;;;;;0.98;0.95;;;5.40;99.90;;;;;;4972530;28;20076;-72
2021/11/15 08:55:09;;;;;;;1.00;0.52;;;5.40;99.90;;;;;;4973964;28;20527;-72
2021/11/15 08:57:35;;;;;;;0.22;0.22;;;5.40;99.90;;;;;;4956358;28;20481;-72
2021/11/15 09:00:00;;;;;;;0.45;0.45;;;5.30;99.90;;;;;;4983678;28;20149;-72
2021/11/15 09:02:26;;;;;;;0.20;0.20;;;5.30;99.90;;;;;;4992040;28;20018;-71
2021/11/15 09:04:52;;;;;;;0.20;0.20;;;5.40;99.90;;;;;;4991690;28;20087;-72
2021/11/15 09:07:18;;;;;;;0.15;0.15;;;5.20;99.90;;;;;;4974901;28;20033;-72
2021/11/15 09:09:43;;;;;;;0.20;0.20;;;5.30;99.90;;;;;;4992709;28;20470;-72
2021/11/15 09:12:09;;;;;;;0.10;0.10;;;5.50;99.90;;;;;;4991925;28;20042;-72
2021/11/15 09:14:36;;;;;;;2.35;2.00;;;5.50;99.90;;;;;;4992942;28;20030;-72
2021/11/15 09:17:03;;;;;;;0.77;0.77;;;5.50;99.90;;;;;;4981979;28;20034;-72
2021/11/15 09:19:29;;;;;;;0.85;0.43;;;5.50;99.90;;;;;;4971475;28;20102;-72
2021/11/15 09:21:56;;;;;;;1.00;0.90;;;5.40;99.90;;;;;;4970317;28;20145;-73
2021/11/15 09:24:23;;;;;;;0.70;0.60;;;5.40;99.90;;;;;;4970184;28;20430;-73
2021/11/15 09:26:49;;;;;;;1.35;0.77;;;5.40;99.90;;;;;;4969924;28;20122;-72
2021/11/15 09:29:18;;;;;;;0.20;0.20;;;5.40;99.90;;;;;;4969996;28;20038;-71
2021/11/15 09:31:45;;;;;;;0.77;0.77;;;5.50;99.90;;;;;;4953767;28;20054;-71
2021/11/15 09:34:11;;;;;;;0.10;0.10;;;5.50;99.90;;;;;;4955257;28;20027;-71
2021/11/15 09:36:37;;;;;;;0.43;0.30;;;5.40;99.90;;;;;;4973280;28;20019;-71
2021/11/15 09:39:05;;;;;;;1.95;1.45;;;5.40;99.90;;;;;;4972024;28;20029;-71
2021/11/15 09:41:31;;;;;;;0.55;0.55;;;5.40;99.90;;;;;;4955724;28;20029;-71
2021/11/15 09:43:57;;;;;;;0.93;0.43;;;5.30;99.90;;;;;;4955285;28;20027;-71
2021/11/15 09:46:26;;;;;;;0.10;0.10;;;5.30;99.90;;;;;;4971557;28;20074;-70
2021/11/15 09:49:10;;;;;;;1.23;0.50;;;5.30;99.90;;;;;;4973147;28;20038;-71
2021/11/15 09:51:38;;;;;;;0.40;0.40;;;5.30;99.90;;;;;;4971928;28;20117;-71
2021/11/15 09:54:05;;;;;;;0.90;0.85;;;5.30;99.90;;;;;;4972969;28;20027;-71
2021/11/15 09:56:31;;;;;;;0.40;0.40;;;5.20;99.90;;;;;;4972714;28;20019;-71
2021/11/15 09:58:57;;;;;;;2.92;1.40;;;5.20;99.90;;;;;;4972901;28;20027;-71
2021/11/15 10:01:23;;;;;;;0.32;0.32;;;5.20;99.90;;;;;;4972987;28;20023;-71
2021/11/15 10:03:50;;;;;;;2.88;2.72;;;5.20;99.90;;;;;;4973115;28;20482;-71
2021/11/15 10:06:16;;;;;;;4.90;1.45;;;5.00;99.90;;;;;;4955285;28;20023;-72
2021/11/15 10:08:42;;;;;;;0.43;0.43;;;5.10;99.90;;;;;;4971877;28;20026;-72
2021/11/15 10:11:08;;;;;;;0.98;0.73;;;5.20;99.90;;;;;;4972706;28;20031;-72
2021/11/15 10:13:35;;;;;;;0.47;0.47;;;5.40;99.90;;;;;;4972728;28;20110;-72
2021/11/15 10:16:18;;;;;;;0.20;0.20;;;5.40;99.90;;;;;;4955347;28;20027;-70
2021/11/15 10:18:57;;;;;;;0.10;0.10;;;5.40;99.90;;;;;;4974953;28;20435;-72
2021/11/15 10:21:35;;;;;;;2.45;0.70;;;5.50;99.90;;;;;;4975360;28;20498;-72
2021/11/15 10:24:11;;;;;;;0.22;0.22;;;5.50;99.90;;;;;;4975659;28;20018;-72
2021/11/15 10:26:39;;;;;;;2.30;0.57;;;5.50;99.90;;;;;;4976568;28;20041;-72
2021/11/15 10:29:06;;;;;;;0.10;0.10;;;5.50;99.90;;;;;;4975210;28;20037;-72
2021/11/15 10:31:35;;;;;;;2.05;1.95;;;5.40;99.90;;;;;;4959064;28;20545;-71
2021/11/15 10:34:07;;;;;;;0.30;0.30;;;5.50;99.90;;;;;;4976500;28;20049;-73
2021/11/15 10:36:57;;;;;;;0.15;0.15;;;5.50;99.90;;;;;;4976237;28;20410;-72
2021/11/15 10:39:46;;;;;;;1.27;1.08;;;5.30;99.90;;;;;;4980074;28;20033;-72
2021/11/15 10:42:31;;;;;;;0.20;0.20;;;5.40;99.90;;;;;;4984234;28;20042;-72
2021/11/15 10:44:57;;;;;;;0.10;0.10;;;5.40;99.90;;;;;;4995656;28;20019;-72
2021/11/15 10:47:30;;;;;;;0.73;0.73;;;5.50;99.90;;;;;;4990349;28;20613;-72
2021/11/15 10:50:03;;;;;;;0.20;0.20;;;5.50;99.90;;;;;;4974773;28;20034;-72
2021/11/15 10:52:32;;;;;;;0.80;0.80;;;5.50;99.90;;;;;;4976184;28;20395;-72
2021/11/15 10:55:04;;;;;;;1.00;1.00;;;5.50;99.90;;;;;;4974557;28;20414;-72
2021/11/15 10:57:45;;;;;;;2.92;1.27;;;5.60;99.90;;;;;;4977573;28;20376;-73
2021/11/15 11:00:13;;;;;;;6.78;2.38;;;5.70;99.90;;;;;;4974963;28;20018;-72
2021/11/15 11:02:46;;;;;;;0.52;0.52;;;5.50;99.90;;;;;;4974923;28;20491;-72
2021/11/15 11:05:22;;;;;;;0.50;0.50;;;5.40;99.90;;;;;;4974367;28;20500;-72
2021/11/15 11:08:05;;;;;;;0.63;0.63;;;5.50;99.90;;;;;;4975909;28;20383;-72
2021/11/15 11:10:38;;;;;;;;;;;5.50;99.90;;;;;;4974686;28;20053;-73
2021/11/15 11:13:04;;;;;;;2.10;1.25;;;5.60;99.90;;;;;;4975823;28;19906;-73
2021/11/15 11:15:44;;;;;;;1.90;0.40;;;5.50;99.90;;;;;;4975690;28;20035;-72
2021/11/15 11:18:17;;;;;;;0.20;0.20;;;5.50;99.90;;;;;;4975768;28;20029;-72
2021/11/15 11:26:27;;;;;;;1.17;1.13;;;5.70;99.90;;;;;;4975475;28;20073;-73
2021/11/15 11:29:00;;;;;;;0.20;0.20;;;5.70;99.90;;;;;;4974273;28;20150;-72
2021/11/15 11:31:27;;;;;;;0.80;0.52;;;5.70;99.90;;;;;;4974073;28;20042;-72
2021/11/15 11:33:53;;;;;;;1.63;1.52;;;5.60;99.90;;;;;;4974123;28;20375;-73
2021/11/15 11:36:19;;;;;;;0.68;0.68;;;5.40;99.90;;;;;;4974986;28;20025;-73
2021/11/15 11:38:46;;;;;;;1.20;0.73;;;5.50;99.90;;;;;;4974501;28;20031;-72
2021/11/15 11:41:13;;;;;;;0.22;0.22;;;5.50;99.90;;;;;;4974332;28;20023;-72
2021/11/15 11:43:40;;;;;;;0.35;0.35;;;5.60;99.90;;;;;;4974465;28;20027;-73
2021/11/15 11:46:06;;;;;;;0.10;0.10;;;5.60;99.90;;;;;;4975075;28;20479;-72
2021/11/15 11:48:33;;;;;;;0.10;0.10;;;5.60;99.90;;;;;;4974050;28;20054;-73
2021/11/15 11:51:00;;;;;;;0.80;0.80;;;5.60;99.90;;;;;;4973879;28;20030;-72
2021/11/15 11:53:29;;;;;;;0.20;0.20;;;5.60;99.90;;;;;;4974553;28;20506;-72
2021/11/15 11:55:57;;;;;;;0.38;0.30;;;5.70;99.90;;;;;;4973353;28;20066;-73
2021/11/15 11:58:33;;;;;;;1.90;0.68;;;5.70;99.90;;;;;;4974950;28;20036;-73
2021/11/15 12:01:04;;;;;;;1.25;1.08;;;5.80;99.90;;;;;;4974946;28;20102;-72
2021/11/15 12:03:32;;;;;;;0.20;0.20;;;5.80;99.90;;;;;;4973987;28;20101;-72
2021/11/15 12:06:21;;;;;;;1.73;1.63;;;5.90;99.90;;;;;;4974981;28;20367;-73
2021/11/15 12:08:53;;;;;;;2.28;1.55;;;5.90;99.90;;;;;;4957435;28;20073;-72
2021/11/15 12:11:31;;;;;;;4.18;2.50;;;5.90;99.90;;;;;;4973696;28;20023;-72
2021/11/15 12:13:58;;;;;;;0.30;0.30;;;5.80;99.90;;;;;;4975026;28;20085;-72
2021/11/15 12:16:44;;;;;;;1.10;0.93;;;5.60;99.90;;;;;;4973532;28;20105;-73
2021/11/15 12:19:10;;;;;;;0.30;0.30;;;5.70;99.90;;;;;;4973485;28;20025;-72
2021/11/15 12:21:37;;;;;;;0.15;0.15;;;5.70;99.90;;;;;;4973426;28;20023;-72
2021/11/15 12:24:16;;;;;;;2.33;1.15;;;5.70;99.90;;;;;;4973576;28;20439;-73
2021/11/15 12:26:51;;;;;;;0.10;0.10;;;5.60;99.90;;;;;;4974531;28;20026;-72
2021/11/15 12:29:20;;;;;;;0.68;0.68;;;5.60;99.90;;;;;;4973201;28;20299;-76
2021/11/15 12:31:53;;;;;;;0.10;0.10;;;5.80;99.90;;;;;;4957973;28;20098;-76
2021/11/15 12:34:22;;;;;;;5.10;1.45;;;5.90;99.90;;;;;;4974667;28;20030;-77
2021/11/15 12:36:53;;;;;;;2.13;0.70;;;5.80;99.90;;;;;;4974630;28;20382;-74
2021/11/15 12:39:25;;;;;;;0.20;0.20;;;5.80;99.90;;;;;;4957353;28;20019;-76
2021/11/15 12:41:53;;;;;;;0.20;0.20;;;5.80;99.90;;;;;;4973269;28;20098;-76
2021/11/15 12:44:23;;;;;;;0.10;0.10;;;5.90;99.90;;;;;;4973435;28;20483;-76
2021/11/15 12:46:49;;;;;;;0.10;0.10;;;5.90;99.90;;;;;;4981998;28;20062;-75
2021/11/15 12:49:25;;;;;;;0.10;0.10;;;5.90;99.90;;;;;;4982813;28;20064;-75
2021/11/15 12:52:13;;;;;;;0.20;0.20;;;5.90;99.90;;;;;;4976802;28;20085;-76
2021/11/15 12:54:48;;;;;;;9.65;2.78;;;5.90;99.90;;;;;;4973864;28;20033;-76
2021/11/15 12:57:17;;;;;;;0.20;0.20;;;5.90;99.90;;;;;;4974502;28;20027;-77
2021/11/15 12:59:51;;;;;;;2.35;0.80;;;6.00;99.90;;;;;;4974421;28;20018;-76
2021/11/15 13:02:17;;;;;;;0.20;0.20;;;5.90;99.90;;;;;;4983430;28;20029;-76
2021/11/15 13:04:44;;;;;;;0.98;0.98;;;6.00;99.90;;;;;;4992058;28;20067;-76
2021/11/15 13:07:11;;;;;;;0.15;0.15;;;6.00;99.90;;;;;;4993274;28;20033;-76
2021/11/15 13:09:38;;;;;;;0.43;0.43;;;6.10;99.90;;;;;;4990764;28;20038;-76
2021/11/15 13:12:04;;;;;;;2.67;0.90;;;6.00;99.90;;;;;;4991589;28;20027;-75